sensor_id;sensor_type;location;lat;lon;timestamp;pressure;altitude;pressure_sealevel;temperature;humidity
49342;BME280;35210;41.606;-87.602;2023-04-07T00:02:03;100834.88;;;13.96;33.08
49342;BME280;35210;41.606;-87.602;2023-04-07T00:04:31;100826.59;;;14.01;32.60
49342;BME280;35210;41.606;-87.602;2023-04-07T00:07:00;100830.84;;;14.03;31.83
49342;BME280;35210;41.606;-87.602;2023-04-07T00:09:29;100829.25;;;14.01;32.25
49342;BME280;35210;41.606;-87.602;2023-04-07T00:11:57;100840.94;;;13.98;32.76
49342;BME280;35210;41.606;-87.602;2023-04-07T00:14:26;100840.19;;;13.96;31.75
49342;BME280;35210;41.606;-87.602;2023-04-07T00:16:55;100854.94;;;13.88;32.14
49342;BME280;35210;41.606;-87.602;2023-04-07T00:19:25;100854.59;;;13.79;32.00
49342;BME280;35210;41.606;-87.602;2023-04-07T00:21:53;100849.31;;;13.79;32.43
49342;BME280;35210;41.606;-87.602;2023-04-07T00:24:21;100858.44;;;13.75;32.44
49342;BME280;35210;41.606;-87.602;2023-04-07T00:26:49;100856.53;;;13.77;32.42
49342;BME280;35210;41.606;-87.602;2023-04-07T00:29:17;100854.19;;;13.73;32.60
49342;BME280;35210;41.606;-87.602;2023-04-07T00:31:45;100857.56;;;13.75;33.36
49342;BME280;35210;41.606;-87.602;2023-04-07T00:34:14;100854.59;;;13.79;33.27
49342;BME280;35210;41.606;-87.602;2023-04-07T00:36:43;100856.50;;;13.65;32.60
49342;BME280;35210;41.606;-87.602;2023-04-07T00:39:17;100857.34;;;13.65;32.84
49342;BME280;35210;41.606;-87.602;2023-04-07T00:41:45;100862.66;;;13.65;33.38
49342;BME280;35210;41.606;-87.602;2023-04-07T00:44:13;100859.66;;;13.57;33.78
49342;BME280;35210;41.606;-87.602;2023-04-07T00:46:41;100862.50;;;13.54;34.11
49342;BME280;35210;41.606;-87.602;2023-04-07T00:49:10;100872.19;;;13.55;33.53
49342;BME280;35210;41.606;-87.602;2023-04-07T00:51:38;100864.97;;;13.57;33.93
49342;BME280;35210;41.606;-87.602;2023-04-07T00:54:09;100871.44;;;13.53;34.24
49342;BME280;35210;41.606;-87.602;2023-04-07T00:56:38;100869.94;;;13.49;34.62
49342;BME280;35210;41.606;-87.602;2023-04-07T00:59:06;100877.59;;;13.54;34.40
49342;BME280;35210;41.606;-87.602;2023-04-07T01:01:42;100883.31;;;13.47;34.48
49342;BME280;35210;41.606;-87.602;2023-04-07T01:04:17;100887.22;;;13.42;34.92
49342;BME280;35210;41.606;-87.602;2023-04-07T01:06:49;100892.22;;;13.46;35.11
49342;BME280;35210;41.606;-87.602;2023-04-07T01:09:24;100888.59;;;13.47;34.67
49342;BME280;35210;41.606;-87.602;2023-04-07T01:11:58;100889.09;;;13.40;34.78
49342;BME280;35210;41.606;-87.602;2023-04-07T01:14:37;100887.41;;;13.39;34.93
49342;BME280;35210;41.606;-87.602;2023-04-07T01:17:08;100894.66;;;13.37;35.20
49342;BME280;35210;41.606;-87.602;2023-04-07T01:19:39;100888.69;;;13.33;35.12
49342;BME280;35210;41.606;-87.602;2023-04-07T01:22:11;100885.03;;;13.22;35.42
49342;BME280;35210;41.606;-87.602;2023-04-07T01:25:05;100888.63;;;13.21;35.43
49342;BME280;35210;41.606;-87.602;2023-04-07T01:27:53;100897.91;;;13.13;36.31
49342;BME280;35210;41.606;-87.602;2023-04-07T01:30:27;100894.50;;;13.11;36.14
49342;BME280;35210;41.606;-87.602;2023-04-07T01:32:58;100901.50;;;13.12;36.48
49342;BME280;35210;41.606;-87.602;2023-04-07T01:35:29;100900.66;;;13.12;36.58
49342;BME280;35210;41.606;-87.602;2023-04-07T01:37:59;100910.41;;;13.11;36.83
49342;BME280;35210;41.606;-87.602;2023-04-07T01:40:29;100900.75;;;13.10;36.83
49342;BME280;35210;41.606;-87.602;2023-04-07T01:43:01;100905.09;;;13.11;36.89
49342;BME280;35210;41.606;-87.602;2023-04-07T01:45:31;100911.66;;;13.06;36.63
49342;BME280;35210;41.606;-87.602;2023-04-07T01:48:03;100908.91;;;13.07;36.14
49342;BME280;35210;41.606;-87.602;2023-04-07T01:50:33;100916.50;;;12.99;36.82
49342;BME280;35210;41.606;-87.602;2023-04-07T01:53:02;100916.69;;;12.96;36.88
49342;BME280;35210;41.606;-87.602;2023-04-07T01:55:32;100912.81;;;12.88;37.15
49342;BME280;35210;41.606;-87.602;2023-04-07T01:58:04;100910.81;;;12.91;36.69
49342;BME280;35210;41.606;-87.602;2023-04-07T02:00:36;100921.81;;;12.85;36.48
49342;BME280;35210;41.606;-87.602;2023-04-07T02:03:10;100920.31;;;12.81;36.92
49342;BME280;35210;41.606;-87.602;2023-04-07T02:05:47;100916.34;;;12.74;37.25
49342;BME280;35210;41.606;-87.602;2023-04-07T02:08:17;100920.97;;;12.70;36.98
49342;BME280;35210;41.606;-87.602;2023-04-07T02:10:48;100924.84;;;12.65;36.60
49342;BME280;35210;41.606;-87.602;2023-04-07T02:13:19;100934.81;;;12.61;36.65
49342;BME280;35210;41.606;-87.602;2023-04-07T02:15:50;100929.63;;;12.60;37.23
49342;BME280;35210;41.606;-87.602;2023-04-07T02:18:20;100930.56;;;12.59;37.08
49342;BME280;35210;41.606;-87.602;2023-04-07T02:20:50;100934.25;;;12.56;37.12
49342;BME280;35210;41.606;-87.602;2023-04-07T02:23:19;100936.72;;;12.59;37.05
49342;BME280;35210;41.606;-87.602;2023-04-07T02:25:48;100944.38;;;12.49;37.12
49342;BME280;35210;41.606;-87.602;2023-04-07T02:28:16;100945.13;;;12.52;36.85
49342;BME280;35210;41.606;-87.602;2023-04-07T02:30:45;100944.56;;;12.46;36.73
49342;BME280;35210;41.606;-87.602;2023-04-07T02:33:15;100946.63;;;12.41;36.48
49342;BME280;35210;41.606;-87.602;2023-04-07T02:35:43;100950.50;;;12.36;37.13
49342;BME280;35210;41.606;-87.602;2023-04-07T02:38:11;100952.66;;;12.29;37.28
49342;BME280;35210;41.606;-87.602;2023-04-07T02:40:39;100951.91;;;12.27;37.79
49342;BME280;35210;41.606;-87.602;2023-04-07T02:43:07;100958.34;;;12.23;37.05
49342;BME280;35210;41.606;-87.602;2023-04-07T02:45:36;100961.16;;;12.20;37.59
49342;BME280;35210;41.606;-87.602;2023-04-07T02:48:04;100962.28;;;12.16;36.92
49342;BME280;35210;41.606;-87.602;2023-04-07T02:50:34;100958.19;;;12.10;37.20
49342;BME280;35210;41.606;-87.602;2023-04-07T02:53:03;100964.34;;;12.11;37.46
49342;BME280;35210;41.606;-87.602;2023-04-07T02:55:31;100972.28;;;12.11;37.90
49342;BME280;35210;41.606;-87.602;2023-04-07T02:57:59;100974.94;;;12.11;37.26
49342;BME280;35210;41.606;-87.602;2023-04-07T03:00:27;100969.81;;;12.08;37.65
49342;BME280;35210;41.606;-87.602;2023-04-07T03:02:55;100973.78;;;12.01;36.95
49342;BME280;35210;41.606;-87.602;2023-04-07T03:05:23;100983.69;;;11.97;37.54
49342;BME280;35210;41.606;-87.602;2023-04-07T03:07:53;100972.25;;;11.97;37.64
49342;BME280;35210;41.606;-87.602;2023-04-07T03:10:21;100975.06;;;11.94;37.83
49342;BME280;35210;41.606;-87.602;2023-04-07T03:12:49;100975.25;;;11.91;37.83
49342;BME280;35210;41.606;-87.602;2023-04-07T03:15:17;100976.41;;;11.87;37.47
49342;BME280;35210;41.606;-87.602;2023-04-07T03:17:45;100983.41;;;11.88;37.79
49342;BME280;35210;41.606;-87.602;2023-04-07T03:20:14;100978.28;;;11.84;38.32
49342;BME280;35210;41.606;-87.602;2023-04-07T03:22:42;100986.41;;;11.81;38.10
49342;BME280;35210;41.606;-87.602;2023-04-07T03:25:14;100984.69;;;11.80;37.82
49342;BME280;35210;41.606;-87.602;2023-04-07T03:27:42;100988.41;;;11.76;38.53
49342;BME280;35210;41.606;-87.602;2023-04-07T03:30:11;100991.25;;;11.73;38.80
49342;BME280;35210;41.606;-87.602;2023-04-07T03:32:39;100993.13;;;11.71;39.36
49342;BME280;35210;41.606;-87.602;2023-04-07T03:35:08;100995.19;;;11.66;39.09
49342;BME280;35210;41.606;-87.602;2023-04-07T03:37:39;100995.34;;;11.63;39.15
49342;BME280;35210;41.606;-87.602;2023-04-07T03:40:08;101000.03;;;11.58;38.93
49342;BME280;35210;41.606;-87.602;2023-04-07T03:42:38;101002.00;;;11.55;39.46
49342;BME280;35210;41.606;-87.602;2023-04-07T03:45:07;101003.03;;;11.52;39.56
49342;BME280;35210;41.606;-87.602;2023-04-07T03:47:36;100996.22;;;11.48;39.57
49342;BME280;35210;41.606;-87.602;2023-04-07T03:50:04;100999.63;;;11.50;38.94
49342;BME280;35210;41.606;-87.602;2023-04-07T03:52:33;101005.09;;;11.47;38.69
49342;BME280;35210;41.606;-87.602;2023-04-07T03:55:02;101006.19;;;11.43;38.68
49342;BME280;35210;41.606;-87.602;2023-04-07T03:57:30;101006.44;;;11.38;38.65
49342;BME280;35210;41.606;-87.602;2023-04-07T04:00:01;101007.63;;;11.33;39.56
49342;BME280;35210;41.606;-87.602;2023-04-07T04:02:29;101018.38;;;11.30;39.38
49342;BME280;35210;41.606;-87.602;2023-04-07T04:04:57;101017.63;;;11.28;38.98
49342;BME280;35210;41.606;-87.602;2023-04-07T04:07:26;101012.56;;;11.23;39.80
49342;BME280;35210;41.606;-87.602;2023-04-07T04:09:55;101011.72;;;11.23;39.75
49342;BME280;35210;41.606;-87.602;2023-04-07T04:12:24;101017.19;;;11.19;39.96
49342;BME280;35210;41.606;-87.602;2023-04-07T04:14:52;101022.63;;;11.16;39.62
49342;BME280;35210;41.606;-87.602;2023-04-07T04:17:22;101029.78;;;11.14;39.36
49342;BME280;35210;41.606;-87.602;2023-04-07T04:19:51;101022.13;;;11.10;39.40
49342;BME280;35210;41.606;-87.602;2023-04-07T04:22:19;101028.53;;;11.06;39.56
49342;BME280;35210;41.606;-87.602;2023-04-07T04:24:47;101032.34;;;11.00;40.17
49342;BME280;35210;41.606;-87.602;2023-04-07T04:27:16;101034.22;;;10.98;40.04
49342;BME280;35210;41.606;-87.602;2023-04-07T04:29:46;101030.03;;;10.94;40.40
49342;BME280;35210;41.606;-87.602;2023-04-07T04:32:14;101038.13;;;10.91;40.17
49342;BME280;35210;41.606;-87.602;2023-04-07T04:34:44;101032.91;;;10.90;40.66
49342;BME280;35210;41.606;-87.602;2023-04-07T04:37:13;101025.22;;;10.85;40.36
49342;BME280;35210;41.606;-87.602;2023-04-07T04:39:42;101028.03;;;10.82;40.50
49342;BME280;35210;41.606;-87.602;2023-04-07T04:42:12;101025.63;;;10.77;40.98
49342;BME280;35210;41.606;-87.602;2023-04-07T04:44:40;101024.94;;;10.74;40.53
49342;BME280;35210;41.606;-87.602;2023-04-07T04:47:09;101028.75;;;10.68;40.61
49342;BME280;35210;41.606;-87.602;2023-04-07T04:49:37;101018.44;;;10.64;41.36
49342;BME280;35210;41.606;-87.602;2023-04-07T04:52:08;101023.09;;;10.59;41.79
49342;BME280;35210;41.606;-87.602;2023-04-07T04:54:37;101029.47;;;10.54;42.70
49342;BME280;35210;41.606;-87.602;2023-04-07T04:57:05;101024.34;;;10.51;43.45
49342;BME280;35210;41.606;-87.602;2023-04-07T04:59:34;101028.84;;;10.49;44.08
49342;BME280;35210;41.606;-87.602;2023-04-07T05:02:02;101034.38;;;10.45;43.84
49342;BME280;35210;41.606;-87.602;2023-04-07T05:04:32;101034.53;;;10.42;44.45
49342;BME280;35210;41.606;-87.602;2023-04-07T05:07:00;101030.34;;;10.38;43.99
49342;BME280;35210;41.606;-87.602;2023-04-07T05:09:31;101036.72;;;10.34;44.23
49342;BME280;35210;41.606;-87.602;2023-04-07T05:12:01;101036.19;;;10.27;44.87
49342;BME280;35210;41.606;-87.602;2023-04-07T05:14:30;101032.13;;;10.20;45.17
49342;BME280;35210;41.606;-87.602;2023-04-07T05:16:58;101032.41;;;10.14;45.13
49342;BME280;35210;41.606;-87.602;2023-04-07T05:19:27;101038.91;;;10.07;44.33
49342;BME280;35210;41.606;-87.602;2023-04-07T05:21:56;101040.00;;;10.03;44.41
49342;BME280;35210;41.606;-87.602;2023-04-07T05:24:25;101037.66;;;9.97;44.71
49342;BME280;35210;41.606;-87.602;2023-04-07T05:26:58;101046.66;;;9.93;44.83
49342;BME280;35210;41.606;-87.602;2023-04-07T05:29:26;101052.09;;;9.89;44.83
49342;BME280;35210;41.606;-87.602;2023-04-07T05:31:57;101053.22;;;9.84;44.55
49342;BME280;35210;41.606;-87.602;2023-04-07T05:34:26;101057.88;;;9.79;44.78
49342;BME280;35210;41.606;-87.602;2023-04-07T05:36:55;101058.03;;;9.76;44.47
49342;BME280;35210;41.606;-87.602;2023-04-07T05:39:23;101060.72;;;9.74;44.45
49342;BME280;35210;41.606;-87.602;2023-04-07T05:41:52;101065.44;;;9.68;44.55
49342;BME280;35210;41.606;-87.602;2023-04-07T05:44:25;101075.31;;;9.64;45.40
49342;BME280;35210;41.606;-87.602;2023-04-07T05:46:53;101074.81;;;9.56;46.96
49342;BME280;35210;41.606;-87.602;2023-04-07T05:49:21;101076.03;;;9.49;47.91
49342;BME280;35210;41.606;-87.602;2023-04-07T05:51:49;101078.94;;;9.43;48.88
49342;BME280;35210;41.606;-87.602;2023-04-07T05:54:17;101080.16;;;9.36;49.78
49342;BME280;35210;41.606;-87.602;2023-04-07T05:56:46;101084.91;;;9.28;49.53
49342;BME280;35210;41.606;-87.602;2023-04-07T05:59:15;101096.53;;;9.23;49.24
49342;BME280;35210;41.606;-87.602;2023-04-07T06:01:45;101092.44;;;9.16;48.70
49342;BME280;35210;41.606;-87.602;2023-04-07T06:04:13;101094.28;;;9.14;48.05
49342;BME280;35210;41.606;-87.602;2023-04-07T06:06:42;101098.00;;;9.10;47.81
49342;BME280;35210;41.606;-87.602;2023-04-07T06:09:11;101100.03;;;9.04;48.07
49342;BME280;35210;41.606;-87.602;2023-04-07T06:11:39;101110.78;;;8.99;48.56
49342;BME280;35210;41.606;-87.602;2023-04-07T06:14:08;101103.94;;;8.95;48.37
49342;BME280;35210;41.606;-87.602;2023-04-07T06:16:36;101110.28;;;8.91;48.83
49342;BME280;35210;41.606;-87.602;2023-04-07T06:19:06;101107.78;;;8.88;48.73
49342;BME280;35210;41.606;-87.602;2023-04-07T06:21:34;101111.47;;;8.84;49.05
49342;BME280;35210;41.606;-87.602;2023-04-07T06:24:03;101120.56;;;8.77;49.33
49342;BME280;35210;41.606;-87.602;2023-04-07T06:26:31;101124.25;;;8.73;49.43
49342;BME280;35210;41.606;-87.602;2023-04-07T06:29:00;101126.94;;;8.71;49.49
49342;BME280;35210;41.606;-87.602;2023-04-07T06:31:28;101130.56;;;8.69;49.85
49342;BME280;35210;41.606;-87.602;2023-04-07T06:33:56;101125.56;;;8.63;49.82
49342;BME280;35210;41.606;-87.602;2023-04-07T06:36:26;101121.59;;;8.52;49.82
49342;BME280;35210;41.606;-87.602;2023-04-07T06:38:55;101124.34;;;8.49;49.88
49342;BME280;35210;41.606;-87.602;2023-04-07T06:41:23;101125.28;;;8.48;50.31
49342;BME280;35210;41.606;-87.602;2023-04-07T06:43:51;101126.97;;;8.49;50.33
49342;BME280;35210;41.606;-87.602;2023-04-07T06:46:19;101124.53;;;8.45;51.66
49342;BME280;35210;41.606;-87.602;2023-04-07T06:48:47;101123.69;;;8.44;52.08
49342;BME280;35210;41.606;-87.602;2023-04-07T06:51:16;101131.78;;;8.40;51.94
49342;BME280;35210;41.606;-87.602;2023-04-07T06:53:45;101129.31;;;8.35;53.07
49342;BME280;35210;41.606;-87.602;2023-04-07T06:56:15;101141.78;;;8.30;54.19
49342;BME280;35210;41.606;-87.602;2023-04-07T06:58:44;101141.91;;;8.27;54.69
49342;BME280;35210;41.606;-87.602;2023-04-07T07:01:12;101149.13;;;8.22;55.55
49342;BME280;35210;41.606;-87.602;2023-04-07T07:03:41;101148.47;;;8.17;55.00
49342;BME280;35210;41.606;-87.602;2023-04-07T07:06:09;101152.94;;;8.15;55.02
49342;BME280;35210;41.606;-87.602;2023-04-07T07:08:37;101151.34;;;8.11;54.19
49342;BME280;35210;41.606;-87.602;2023-04-07T07:11:07;101146.22;;;8.08;54.38
49342;BME280;35210;41.606;-87.602;2023-04-07T07:13:35;101153.44;;;8.03;55.42
49342;BME280;35210;41.606;-87.602;2023-04-07T07:16:04;101155.38;;;7.98;55.93
49342;BME280;35210;41.606;-87.602;2023-04-07T07:18:33;101147.66;;;7.93;56.60
49342;BME280;35210;41.606;-87.602;2023-04-07T07:21:02;101155.63;;;7.91;56.94
49342;BME280;35210;41.606;-87.602;2023-04-07T07:23:30;101148.88;;;7.84;57.58
49342;BME280;35210;41.606;-87.602;2023-04-07T07:25:59;101163.06;;;7.80;57.53
49342;BME280;35210;41.606;-87.602;2023-04-07T07:28:28;101166.03;;;7.71;58.00
49342;BME280;35210;41.606;-87.602;2023-04-07T07:30:56;101174.16;;;7.65;58.28
49342;BME280;35210;41.606;-87.602;2023-04-07T07:33:26;101169.88;;;7.63;59.12
49342;BME280;35210;41.606;-87.602;2023-04-07T07:35:54;101171.63;;;7.62;59.59
49342;BME280;35210;41.606;-87.602;2023-04-07T07:38:22;101176.91;;;7.62;60.37
49342;BME280;35210;41.606;-87.602;2023-04-07T07:40:50;101183.19;;;7.58;61.50
49342;BME280;35210;41.606;-87.602;2023-04-07T07:43:18;101175.47;;;7.53;61.56
49342;BME280;35210;41.606;-87.602;2023-04-07T07:45:48;101175.69;;;7.47;61.51
49342;BME280;35210;41.606;-87.602;2023-04-07T07:48:18;101187.91;;;7.48;61.68
49342;BME280;35210;41.606;-87.602;2023-04-07T07:50:46;101180.19;;;7.44;61.71
49342;BME280;35210;41.606;-87.602;2023-04-07T07:53:14;101190.72;;;7.44;61.75
49342;BME280;35210;41.606;-87.602;2023-04-07T07:55:43;101191.72;;;7.41;61.62
49342;BME280;35210;41.606;-87.602;2023-04-07T07:58:11;101199.75;;;7.37;61.04
49342;BME280;35210;41.606;-87.602;2023-04-07T08:00:39;101209.53;;;7.33;61.32
49342;BME280;35210;41.606;-87.602;2023-04-07T08:03:08;101188.66;;;7.29;61.44
49342;BME280;35210;41.606;-87.602;2023-04-07T08:05:36;101198.47;;;7.23;61.88
49342;BME280;35210;41.606;-87.602;2023-04-07T08:08:05;101204.69;;;7.21;61.92
49342;BME280;35210;41.606;-87.602;2023-04-07T08:10:33;101203.94;;;7.17;62.15
49342;BME280;35210;41.606;-87.602;2023-04-07T08:13:01;101205.97;;;7.09;62.77
49342;BME280;35210;41.606;-87.602;2023-04-07T08:15:30;101201.72;;;7.05;62.54
49342;BME280;35210;41.606;-87.602;2023-04-07T08:17:58;101204.56;;;6.99;62.57
49342;BME280;35210;41.606;-87.602;2023-04-07T08:20:31;101201.13;;;6.97;62.42
49342;BME280;35210;41.606;-87.602;2023-04-07T08:23:00;101209.13;;;6.94;62.89
49342;BME280;35210;41.606;-87.602;2023-04-07T08:25:29;101214.44;;;6.92;63.25
49342;BME280;35210;41.606;-87.602;2023-04-07T08:27:57;101207.41;;;6.93;62.93
49342;BME280;35210;41.606;-87.602;2023-04-07T08:30:25;101199.63;;;6.90;62.67
49342;BME280;35210;41.606;-87.602;2023-04-07T08:32:53;101192.66;;;6.89;62.38
49342;BME280;35210;41.606;-87.602;2023-04-07T08:35:21;101192.75;;;6.86;62.22
49342;BME280;35210;41.606;-87.602;2023-04-07T08:37:52;101189.22;;;6.87;62.17
49342;BME280;35210;41.606;-87.602;2023-04-07T08:40:20;101197.91;;;6.89;59.34
49342;BME280;35210;41.606;-87.602;2023-04-07T08:42:48;101193.56;;;6.88;57.76
49342;BME280;35210;41.606;-87.602;2023-04-07T08:45:17;101195.75;;;6.75;57.31
49342;BME280;35210;41.606;-87.602;2023-04-07T08:47:46;101194.03;;;6.74;56.59
49342;BME280;35210;41.606;-87.602;2023-04-07T08:50:16;101194.88;;;6.75;55.73
49342;BME280;35210;41.606;-87.602;2023-04-07T08:52:52;101203.66;;;6.74;57.12
49342;BME280;35210;41.606;-87.602;2023-04-07T08:55:21;101210.69;;;6.73;56.37
49342;BME280;35210;41.606;-87.602;2023-04-07T08:57:52;101214.94;;;6.77;55.13
49342;BME280;35210;41.606;-87.602;2023-04-07T09:00:21;101220.94;;;6.81;53.74
49342;BME280;35210;41.606;-87.602;2023-04-07T09:02:50;101220.94;;;6.81;53.54
49342;BME280;35210;41.606;-87.602;2023-04-07T09:05:19;101218.41;;;6.78;52.16
49342;BME280;35210;41.606;-87.602;2023-04-07T09:07:51;101216.59;;;6.80;51.21
49342;BME280;35210;41.606;-87.602;2023-04-07T09:10:19;101213.78;;;6.86;50.59
49342;BME280;35210;41.606;-87.602;2023-04-07T09:12:47;101208.31;;;6.92;49.81
49342;BME280;35210;41.606;-87.602;2023-04-07T09:15:16;101221.28;;;6.97;50.03
49342;BME280;35210;41.606;-87.602;2023-04-07T09:17:44;101220.97;;;7.06;48.97
49342;BME280;35210;41.606;-87.602;2023-04-07T09:20:12;101216.63;;;7.05;49.00
49342;BME280;35210;41.606;-87.602;2023-04-07T09:22:42;101215.72;;;7.06;48.84
49342;BME280;35210;41.606;-87.602;2023-04-07T09:25:15;101219.91;;;7.11;48.85
49342;BME280;35210;41.606;-87.602;2023-04-07T09:27:57;101222.59;;;7.10;47.63
49342;BME280;35210;41.606;-87.602;2023-04-07T09:30:27;101222.69;;;7.07;47.75
49342;BME280;35210;41.606;-87.602;2023-04-07T09:32:56;101223.34;;;7.13;47.22
49342;BME280;35210;41.606;-87.602;2023-04-07T09:35:24;101221.41;;;7.18;47.22
49342;BME280;35210;41.606;-87.602;2023-04-07T09:38:03;101226.88;;;7.12;48.03
49342;BME280;35210;41.606;-87.602;2023-04-07T09:40:33;101219.81;;;7.14;48.71
49342;BME280;35210;41.606;-87.602;2023-04-07T09:43:04;101219.81;;;7.14;48.91
49342;BME280;35210;41.606;-87.602;2023-04-07T09:45:32;101218.09;;;7.13;48.74
49342;BME280;35210;41.606;-87.602;2023-04-07T09:48:05;101223.44;;;7.10;48.92
49342;BME280;35210;41.606;-87.602;2023-04-07T09:50:34;101213.00;;;7.09;49.35
49342;BME280;35210;41.606;-87.602;2023-04-07T09:53:02;101226.13;;;7.09;49.13
49342;BME280;35210;41.606;-87.602;2023-04-07T09:55:31;101222.59;;;7.10;48.47
49342;BME280;35210;41.606;-87.602;2023-04-07T09:58:01;101226.19;;;7.07;48.54
49342;BME280;35210;41.606;-87.602;2023-04-07T10:00:31;101229.72;;;7.06;48.69
49342;BME280;35210;41.606;-87.602;2023-04-07T10:02:59;101222.91;;;7.01;48.42
49342;BME280;35210;41.606;-87.602;2023-04-07T10:05:29;101217.66;;;7.01;49.29
49342;BME280;35210;41.606;-87.602;2023-04-07T10:07:58;101209.00;;;6.97;49.05
49342;BME280;35210;41.606;-87.602;2023-04-07T10:10:29;101204.72;;;6.95;48.96
49342;BME280;35210;41.606;-87.602;2023-04-07T10:13:00;101200.38;;;6.93;49.30
49342;BME280;35210;41.606;-87.602;2023-04-07T10:15:32;101199.56;;;6.91;49.11
49342;BME280;35210;41.606;-87.602;2023-04-07T10:18:04;101194.28;;;6.93;49.58
49342;BME280;35210;41.606;-87.602;2023-04-07T10:20:34;101192.59;;;6.90;50.05
49342;BME280;35210;41.606;-87.602;2023-04-07T10:23:11;101190.94;;;6.88;50.18
49342;BME280;35210;41.606;-87.602;2023-04-07T10:25:41;101207.56;;;6.88;50.84
49342;BME280;35210;41.606;-87.602;2023-04-07T10:28:13;101205.75;;;6.90;51.09
49342;BME280;35210;41.606;-87.602;2023-04-07T10:30:42;101206.81;;;6.85;51.78
49342;BME280;35210;41.606;-87.602;2023-04-07T10:33:11;101201.56;;;6.85;52.02
49342;BME280;35210;41.606;-87.602;2023-04-07T10:36:04;101203.47;;;6.80;53.14
49342;BME280;35210;41.606;-87.602;2023-04-07T10:38:33;101210.63;;;6.75;54.08
49342;BME280;35210;41.606;-87.602;2023-04-07T10:41:31;101216.00;;;6.72;54.54
49342;BME280;35210;41.606;-87.602;2023-04-07T10:44:02;101227.41;;;6.71;55.57
49342;BME280;35210;41.606;-87.602;2023-04-07T10:47:04;101233.69;;;6.67;55.89
49342;BME280;35210;41.606;-87.602;2023-04-07T10:49:33;101235.41;;;6.68;56.60
49342;BME280;35210;41.606;-87.602;2023-04-07T10:52:23;101251.25;;;6.65;57.50
49342;BME280;35210;41.606;-87.602;2023-04-07T10:55:29;101249.53;;;6.64;57.75
49342;BME280;35210;41.606;-87.602;2023-04-07T10:58:21;101247.72;;;6.66;58.44
49342;BME280;35210;41.606;-87.602;2023-04-07T11:01:28;101257.41;;;6.64;59.68
49342;BME280;35210;41.606;-87.602;2023-04-07T11:03:59;101257.59;;;6.57;59.90
49342;BME280;35210;41.606;-87.602;2023-04-07T11:06:29;101264.44;;;6.63;60.15
49342;BME280;35210;41.606;-87.602;2023-04-07T11:08:58;101271.22;;;6.69;60.70
49342;BME280;35210;41.606;-87.602;2023-04-07T11:11:38;101278.09;;;6.73;61.01
49342;BME280;35210;41.606;-87.602;2023-04-07T11:14:07;101284.25;;;6.72;61.37
49342;BME280;35210;41.606;-87.602;2023-04-07T11:16:41;101294.84;;;6.69;61.75
49342;BME280;35210;41.606;-87.602;2023-04-07T11:19:11;101295.97;;;6.62;62.34
49342;BME280;35210;41.606;-87.602;2023-04-07T11:21:39;101290.88;;;6.57;62.25
49342;BME280;35210;41.606;-87.602;2023-04-07T11:24:07;101297.78;;;6.59;62.73
49342;BME280;35210;41.606;-87.602;2023-04-07T11:26:39;101301.38;;;6.57;63.05
49342;BME280;35210;41.606;-87.602;2023-04-07T11:29:08;101311.00;;;6.56;62.72
49342;BME280;35210;41.606;-87.602;2023-04-07T11:31:46;101307.56;;;6.54;62.66
49342;BME280;35210;41.606;-87.602;2023-04-07T11:34:14;101313.72;;;6.53;62.88
49342;BME280;35210;41.606;-87.602;2023-04-07T11:36:43;101319.75;;;6.57;63.05
49342;BME280;35210;41.606;-87.602;2023-04-07T11:39:18;101320.69;;;6.54;63.34
49342;BME280;35210;41.606;-87.602;2023-04-07T11:41:49;101319.28;;;6.71;61.08
49342;BME280;35210;41.606;-87.602;2023-04-07T11:44:17;101324.44;;;6.74;60.62
49342;BME280;35210;41.606;-87.602;2023-04-07T11:46:58;101327.34;;;6.66;61.15
49342;BME280;35210;41.606;-87.602;2023-04-07T11:49:27;101331.91;;;6.59;61.76
49342;BME280;35210;41.606;-87.602;2023-04-07T13:50:20;101382.53;;;8.20;57.47
49342;BME280;35210;41.606;-87.602;2023-04-07T13:52:48;101358.41;;;8.32;56.13
49342;BME280;35210;41.606;-87.602;2023-04-07T13:55:16;101354.44;;;8.45;56.69
49342;BME280;35210;41.606;-87.602;2023-04-07T13:57:45;101348.59;;;8.37;57.36
49342;BME280;35210;41.606;-87.602;2023-04-07T14:00:14;101353.16;;;8.55;56.83
49342;BME280;35210;41.606;-87.602;2023-04-07T14:02:44;101356.03;;;8.49;55.38
49342;BME280;35210;41.606;-87.602;2023-04-07T14:05:13;101361.81;;;8.59;56.60
49342;BME280;35210;41.606;-87.602;2023-04-07T14:07:43;101364.47;;;8.81;54.87
49342;BME280;35210;41.606;-87.602;2023-04-07T14:10:11;101370.84;;;8.97;54.59
49342;BME280;35210;41.606;-87.602;2023-04-07T14:12:39;101371.22;;;9.10;52.66
49342;BME280;35210;41.606;-87.602;2023-04-07T14:15:08;101382.19;;;9.21;53.73
49342;BME280;35210;41.606;-87.602;2023-04-07T14:17:37;101374.41;;;9.18;51.66
49342;BME280;35210;41.606;-87.602;2023-04-07T14:20:08;101374.03;;;9.27;52.44
49342;BME280;35210;41.606;-87.602;2023-04-07T14:22:36;101373.78;;;9.33;53.74
49342;BME280;35210;41.606;-87.602;2023-04-07T14:25:05;101375.97;;;9.44;52.09
49342;BME280;35210;41.606;-87.602;2023-04-07T14:27:35;101374.19;;;9.44;51.91
49342;BME280;35210;41.606;-87.602;2023-04-07T14:30:04;101370.31;;;9.53;51.10
49342;BME280;35210;41.606;-87.602;2023-04-07T14:32:32;101368.09;;;9.64;49.93
49342;BME280;35210;41.606;-87.602;2023-04-07T14:35:01;101355.13;;;9.78;51.38
49342;BME280;35210;41.606;-87.602;2023-04-07T14:37:31;101347.88;;;9.83;47.61
49342;BME280;35210;41.606;-87.602;2023-04-07T14:40:02;101345.91;;;9.88;45.28
49342;BME280;35210;41.606;-87.602;2023-04-07T14:42:30;101345.56;;;9.96;45.01
49342;BME280;35210;41.606;-87.602;2023-04-07T14:44:59;101346.16;;;10.03;43.84
49342;BME280;35210;41.606;-87.602;2023-04-07T14:47:27;101354.38;;;10.15;45.26
49342;BME280;35210;41.606;-87.602;2023-04-07T14:49:55;101360.38;;;10.19;45.57